Time;durP1;ratioP1;P1;durP2;ratioP2;P2;SDS_P1;SDS_P2;PMS_P1;PMS_P2;Temp;Humidity;BMP_temperature;BMP_pressure;BME280_temperature;BME280_humidity;BME280_pressure;Samples;Min_cycle;Max_cycle;Signal;HPM_P1;HPM_P2
2023/10/02 00:03:39;;;;;;;42.08;22.38;;;;;;;22.93;nan;98112.50;4875155;29;20133;-67
2023/10/02 00:06:10;;;;;;;34.22;21.77;;;;;;;23.18;nan;98123.03;4876639;29;20077;-68
2023/10/02 00:08:49;;;;;;;39.30;21.70;;;;;;;23.00;nan;98111.06;4876728;29;20152;-68
2023/10/02 00:11:36;;;;;;;35.53;22.38;;;;;;;22.86;nan;98120.13;4876527;29;20679;-68
2023/10/02 00:14:22;;;;;;;40.03;23.52;;;;;;;22.81;nan;98121.00;4876854;29;20053;-68
2023/10/02 00:16:59;;;;;;;39.45;23.25;;;;;;;22.80;nan;98117.50;4877135;29;20089;-68
2023/10/02 00:19:44;;;;;;;38.92;22.90;;;;;;;22.75;nan;98124.81;4876688;29;20060;-68
2023/10/02 00:22:38;;;;;;;40.22;23.27;;;;;;;22.67;nan;98130.81;4876548;29;20053;-68
2023/10/02 00:25:19;;;;;;;41.05;21.58;;;;;;;22.59;nan;98121.44;4876522;29;20433;-68
2023/10/02 00:27:54;;;;;;;39.90;22.00;;;;;;;22.70;nan;98133.00;4877177;29;20072;-67
2023/10/02 00:30:36;;;;;;;34.47;21.58;;;;;;;22.71;nan;98131.88;4872508;29;20497;-68
2023/10/02 00:33:11;;;;;;;34.85;21.05;;;;;;;22.70;nan;98139.19;4871630;29;20057;-68
2023/10/02 00:35:50;;;;;;;36.67;21.55;;;;;;;22.78;nan;98132.38;4872809;29;20762;-68
2023/10/02 00:38:23;;;;;;;30.02;21.15;;;;;;;22.92;nan;98137.91;4872563;29;20076;-68
2023/10/02 00:40:53;;;;;;;38.00;21.90;;;;;;;22.87;nan;98143.34;4873744;29;20057;-67
2023/10/02 00:43:35;;;;;;;35.30;21.38;;;;;;;22.98;nan;98132.16;4873843;29;20056;-68
2023/10/02 00:46:04;;;;;;;37.90;22.10;;;;;;;22.81;nan;98143.41;4873341;29;20053;-68
2023/10/02 00:48:34;;;;;;;36.70;22.67;;;;;;;23.14;nan;98144.44;4871128;29;20049;-68
2023/10/02 00:51:07;;;;;;;38.05;22.23;;;;;;;22.99;nan;98141.88;4858050;29;20057;-68
2023/10/02 00:54:23;;;;;;;;;;;;;;;22.94;nan;98152.72;4872869;29;20821;-68
2023/10/02 00:56:30;;;;;;;34.67;22.50;;;;;;;23.09;nan;98143.66;4872444;29;19967;-68
2023/10/02 00:59:14;;;;;;;34.17;21.50;;;;;;;23.00;nan;98146.19;4872361;29;20065;-68
2023/10/02 01:01:44;;;;;;;35.65;21.65;;;;;;;22.85;nan;98154.44;4873053;29;20041;-68
2023/10/02 01:04:28;;;;;;;32.00;19.23;;;;;;;22.77;nan;98155.06;4872346;29;20132;-68
2023/10/02 01:07:11;;;;;;;34.58;20.48;;;;;;;22.78;nan;98159.38;4875552;29;20064;-68
2023/10/02 01:09:41;;;;;;;39.15;22.00;;;;;;;22.74;nan;98159.16;4876629;29;20044;-68
2023/10/02 01:12:16;;;;;;;33.42;20.38;;;;;;;22.81;nan;98165.00;4871408;29;20055;-68
2023/10/02 01:14:51;;;;;;;31.42;19.90;;;;;;;22.72;nan;98171.31;4879496;29;20052;-68
2023/10/02 01:17:22;;;;;;;31.88;22.40;;;;;;;22.84;nan;98177.13;4880530;29;20056;-68
2023/10/02 01:19:53;;;;;;;34.25;21.20;;;;;;;23.00;nan;98175.91;4880899;29;20056;-68
2023/10/02 01:22:30;;;;;;;42.00;22.47;;;;;;;22.93;nan;98169.22;4870861;29;20132;-68
2023/10/02 01:25:13;;;;;;;40.83;22.33;;;;;;;23.02;nan;98178.31;4890767;29;20473;-68
2023/10/02 01:27:50;;;;;;;42.08;22.38;;;;;;;23.19;nan;98187.56;4884797;29;20052;-68
2023/10/02 01:30:24;;;;;;;37.75;21.35;;;;;;;23.32;nan;98196.91;4875365;29;20048;-68
2023/10/02 01:33:12;;;;;;;45.97;24.95;;;;;;;23.37;nan;98186.03;4866884;29;20415;-68
2023/10/02 01:35:49;;;;;;;37.22;20.85;;;;;;;23.47;nan;98191.34;4871949;29;20059;-68
2023/10/02 01:38:27;;;;;;;46.40;22.15;;;;;;;23.45;nan;98193.56;4880237;29;20052;-68
2023/10/02 01:41:05;;;;;;;32.35;20.65;;;;;;;23.52;nan;98191.28;4877401;29;20060;-68
2023/10/02 01:43:43;;;;;;;35.95;21.10;;;;;;;23.58;nan;98202.88;4879247;29;20063;-68
2023/10/02 01:46:17;;;;;;;40.78;21.02;;;;;;;23.60;nan;98204.16;4878300;29;20063;-68
2023/10/02 01:48:48;;;;;;;41.58;22.30;;;;;;;23.63;nan;98205.50;4874412;29;20393;-68
2023/10/02 01:51:26;;;;;;;37.10;20.90;;;;;;;23.67;nan;98214.66;4870101;29;20136;-68
2023/10/02 01:54:22;;;;;;;38.53;21.70;;;;;;;23.78;nan;98218.81;4871795;29;20045;-68
2023/10/02 01:56:52;;;;;;;38.53;21.65;;;;;;;23.81;nan;98218.25;4893295;29;20587;-68
2023/10/02 01:59:23;;;;;;;40.20;21.33;;;;;;;23.84;nan;98230.41;4876208;29;20056;-68
2023/10/02 02:01:57;;;;;;;37.65;21.70;;;;;;;23.90;nan;98224.63;4870119;29;20045;-68
2023/10/02 02:04:32;;;;;;;42.72;22.65;;;;;;;24.01;nan;98226.09;4891223;29;20049;-67
2023/10/02 02:07:04;;;;;;;42.10;21.75;;;;;;;24.06;nan;98233.34;4876991;29;20045;-68
2023/10/02 02:09:42;;;;;;;42.15;23.35;;;;;;;24.24;nan;98229.06;4877523;29;20064;-68
2023/10/02 02:12:44;;;;;;;43.50;25.55;;;;;;;24.32;nan;98242.75;4879208;29;20119;-68
2023/10/02 02:15:14;;;;;;;39.15;23.98;;;;;;;24.47;nan;98242.50;4881441;29;20127;-67
2023/10/02 02:17:43;;;;;;;43.45;24.42;;;;;;;24.59;nan;98236.66;4881936;29;20060;-67
2023/10/02 02:20:43;;;;;;;39.00;24.38;;;;;;;24.66;nan;98252.53;4870340;29;20057;-68
2023/10/02 02:23:07;;;;;;;55.60;26.58;;;;;;;24.78;nan;98255.59;4869455;29;20195;-68
2023/10/02 02:25:36;;;;;;;52.95;30.25;;;;;;;24.79;nan;98258.00;4870660;29;20539;-68
2023/10/02 02:28:06;;;;;;;53.28;28.60;;;;;;;24.84;nan;98251.69;4870867;29;20148;-67
2023/10/02 02:30:40;;;;;;;57.50;29.33;;;;;;;25.02;nan;98267.97;4872215;29;20045;-68
2023/10/02 02:33:13;;;;;;;50.15;30.35;;;;;;;25.13;nan;98267.78;4872885;29;20052;-68
2023/10/02 02:35:44;;;;;;;54.95;31.73;;;;;;;25.16;nan;98280.75;4871907;29;20049;-68
2023/10/02 02:38:15;;;;;;;54.15;32.10;;;;;;;25.31;nan;98285.91;4871082;29;20060;-68
2023/10/02 02:41:05;;;;;;;50.70;30.60;;;;;;;25.33;nan;98289.09;4870240;29;20056;-68
2023/10/02 02:43:38;;;;;;;63.63;31.77;;;;;;;25.21;nan;98286.06;4870264;29;20049;-68
2023/10/02 02:46:07;;;;;;;52.67;30.30;;;;;;;25.37;nan;98290.13;4871779;29;20049;-68
2023/10/02 02:48:44;;;;;;;55.17;29.13;;;;;;;25.58;nan;98294.09;4871860;29;20117;-68
2023/10/02 02:51:18;;;;;;;58.40;32.60;;;;;;;25.43;nan;98300.59;4865261;29;20447;-67
2023/10/02 02:53:47;;;;;;;54.40;29.40;;;;;;;25.59;nan;98293.00;4871299;29;20052;-68
2023/10/02 02:56:23;;;;;;;57.17;30.73;;;;;;;25.95;nan;98301.25;4871055;29;20157;-66
2023/10/02 02:58:58;;;;;;;52.03;31.20;;;;;;;26.15;nan;98310.91;4870521;29;20056;-68
2023/10/02 03:01:29;;;;;;;52.08;31.48;;;;;;;26.01;nan;98312.81;4859445;29;20049;-68
2023/10/02 03:04:19;;;;;;;57.30;31.05;;;;;;;26.01;nan;98312.81;4863820;29;20378;-69
2023/10/02 03:07:07;;;;;;;54.58;31.05;;;;;;;26.15;nan;98310.91;4864097;29;20045;-68
2023/10/02 03:09:37;;;;;;;51.60;30.83;;;;;;;26.44;nan;98314.09;4871302;29;20053;-68
2023/10/02 03:12:06;;;;;;;56.47;30.88;;;;;;;26.33;nan;98315.44;4871485;29;20072;-68
2023/10/02 03:14:35;;;;;;;67.70;32.60;;;;;;;26.42;nan;98315.53;4871262;29;20081;-68
2023/10/02 03:17:28;;;;;;;55.38;31.63;;;;;;;26.41;nan;98311.19;4870425;29;20057;-69
2023/10/02 03:20:01;;;;;;;61.23;32.77;;;;;;;26.71;nan;98319.47;4871682;29;20049;-68
2023/10/02 03:22:33;;;;;;;;;;;;;;;26.71;nan;98326.81;4871983;29;20738;-68
2023/10/02 03:25:25;;;;;;;63.15;30.13;;;;;;;26.76;nan;98330.22;4871267;29;19927;-69
2023/10/02 03:27:54;;;;;;;64.93;30.13;;;;;;;26.81;nan;98327.41;4871696;29;20063;-68
2023/10/02 03:30:38;;;;;;;65.25;30.15;;;;;;;26.92;nan;98325.25;4870794;29;20052;-68
2023/10/02 03:33:23;;;;;;;71.90;28.67;;;;;;;27.08;nan;98328.44;4871739;29;20053;-68
2023/10/02 03:36:09;;;;;;;60.47;27.98;;;;;;;27.26;nan;98330.94;4878121;29;20702;-68
2023/10/02 03:38:42;;;;;;;59.33;27.45;;;;;;;27.41;nan;98328.94;4877747;29;20115;-68
2023/10/02 03:41:13;;;;;;;60.13;26.58;;;;;;;27.69;nan;98333.16;4871142;29;20444;-68
2023/10/02 03:43:48;;;;;;;69.00;28.92;;;;;;;27.68;nan;98340.50;4878149;29;20061;-68
2023/10/02 03:46:23;;;;;;;51.05;24.58;;;;;;;27.83;nan;98342.03;4873412;29;20474;-68
2023/10/02 03:49:04;;;;;;;46.40;24.30;;;;;;;27.99;nan;98343.22;4870418;29;20080;-69
2023/10/02 03:51:36;;;;;;;42.45;22.88;;;;;;;28.17;nan;98341.38;4870436;29;20816;-67
2023/10/02 03:54:23;;;;;;;50.60;23.30;;;;;;;28.25;nan;98348.75;4870268;29;20108;-69
2023/10/02 03:56:55;;;;;;;47.05;23.10;;;;;;;28.28;nan;98344.63;4868646;29;20072;-66
2023/10/02 03:59:28;;;;;;;46.97;22.85;;;;;;;28.42;nan;98351.53;4870123;29;20053;-67
2023/10/02 04:02:46;;;;;;;49.65;22.15;;;;;;;28.58;nan;98352.69;4871035;29;20144;-67
2023/10/02 04:04:49;;;;;;;44.03;21.77;;;;;;;28.73;nan;98354.16;4866869;29;20056;-68
2023/10/02 04:07:18;;;;;;;50.42;23.67;;;;;;;28.99;nan;98359.63;4877248;29;20140;-68
2023/10/02 04:09:50;;;;;;;45.10;23.85;;;;;;;29.06;nan;98359.16;4874519;29;20489;-67
2023/10/02 04:12:19;;;;;;;41.05;21.10;;;;;;;29.31;nan;98369.28;4873523;29;20056;-68
2023/10/02 04:14:48;;;;;;;46.60;20.33;;;;;;;29.70;nan;98370.97;4873668;29;20060;-66
2023/10/02 04:17:34;;;;;;;42.35;21.63;;;;;;;29.95;nan;98370.13;4872668;29;20144;-66
2023/10/02 04:20:05;;;;;;;38.20;19.70;;;;;;;30.15;nan;98371.31;4873034;29;20072;-66
2023/10/02 04:22:36;;;;;;;36.72;19.75;;;;;;;30.68;nan;98376.19;4872851;29;20060;-66
2023/10/02 04:25:06;;;;;;;50.30;22.15;;;;;;;31.05;nan;98374.50;4871489;29;20076;-67
2023/10/02 04:32:51;;;;;;;34.78;15.57;;;;;;;32.12;nan;98385.38;4873766;29;20077;-67
2023/10/02 04:38:09;;;;;;;31.70;14.27;;;;;;;32.73;nan;98394.41;4872912;29;20067;-67
2023/10/02 04:40:49;;;;;;;35.13;14.60;;;;;;;32.91;nan;98395.75;4873474;29;20587;-67
2023/10/02 04:43:19;;;;;;;26.50;13.30;;;;;;;33.10;nan;98395.16;4872559;29;20052;-68
2023/10/02 04:45:52;;;;;;;33.80;11.77;;;;;;;33.38;nan;98389.69;4873619;29;20052;-68
2023/10/02 04:48:45;;;;;;;26.33;11.15;;;;;;;33.74;nan;98405.22;4873373;29;20633;-67
2023/10/02 04:51:16;;;;;;;27.13;9.50;;;;;;;33.97;nan;98397.19;4873136;29;20140;-67
2023/10/02 04:53:46;;;;;;;23.95;9.45;;;;;;;34.00;nan;98396.47;4874003;29;20124;-67
2023/10/02 04:56:21;;;;;;;23.00;8.20;;;;;;;33.75;nan;98396.63;4869593;29;20076;-68
2023/10/02 04:58:57;;;;;;;28.30;9.18;;;;;;;34.17;nan;98399.69;4867270;29;20045;-69
2023/10/02 05:01:41;;;;;;;26.05;9.10;;;;;;;34.32;nan;98398.09;4865178;29;20132;-69
2023/10/02 05:04:18;;;;;;;16.48;7.78;;;;;;;34.56;nan;98395.16;4862249;29;20055;-68
2023/10/02 05:06:55;;;;;;;14.65;7.82;;;;;;;34.76;nan;98389.72;4863263;29;20067;-70
2023/10/02 05:09:32;;;;;;;24.90;8.30;;;;;;;34.71;nan;98391.59;4874837;29;20052;-68
2023/10/02 05:12:06;;;;;;;19.25;8.77;;;;;;;34.88;nan;98395.88;4864257;29;20063;-68
2023/10/02 05:14:51;;;;;;;;;;;;;;;34.80;nan;98390.59;4861329;29;20049;-69
2023/10/02 05:17:41;;;;;;;23.08;9.65;;;;;;;35.04;nan;98384.84;4851637;29;19988;-69
2023/10/02 05:20:15;;;;;;;25.30;9.90;;;;;;;35.07;nan;98389.59;4868993;29;20053;-70
2023/10/02 05:22:53;;;;;;;21.80;10.23;;;;;;;35.00;nan;98383.97;4871485;29;20786;-69
2023/10/02 05:25:23;;;;;;;31.58;9.70;;;;;;;35.06;nan;98391.56;4868336;29;20048;-72
2023/10/02 05:27:57;;;;;;;22.77;9.18;;;;;;;35.17;nan;98389.06;4872912;29;20060;-69
2023/10/02 05:30:28;;;;;;;20.92;8.55;;;;;;;35.06;nan;98382.50;4866950;29;20052;-70
2023/10/02 05:32:58;;;;;;;27.92;9.45;;;;;;;35.18;nan;98378.84;4869486;29;20516;-66
2023/10/02 05:35:27;;;;;;;20.73;9.43;;;;;;;34.62;nan;98379.94;4861663;29;20053;-65
2023/10/02 05:37:58;;;;;;;23.35;10.18;;;;;;;34.80;nan;98380.38;4871817;29;20053;-65
2023/10/02 05:40:37;;;;;;;26.35;9.43;;;;;;;35.47;nan;98387.31;4868068;29;20062;-66
2023/10/02 05:45:47;;;;;;;28.83;10.10;;;;;;;34.93;nan;98378.28;4864068;29;20053;-66
2023/10/02 05:50:59;;;;;;;29.55;11.88;;;;;;;35.20;nan;98382.81;4863388;29;20396;-66
2023/10/02 05:53:34;;;;;;;28.17;10.80;;;;;;;34.64;nan;98374.91;4862756;29;20049;-66
2023/10/02 05:58:44;;;;;;;26.33;9.98;;;;;;;35.08;nan;98377.44;4859182;29;20057;-65
2023/10/02 06:01:23;;;;;;;23.67;10.18;;;;;;;34.90;nan;98373.50;4855572;29;20057;-66
2023/10/02 06:04:00;;;;;;;25.33;10.73;;;;;;;34.80;nan;98368.56;4852015;29;20053;-65
2023/10/02 06:06:35;;;;;;;17.30;9.82;;;;;;;34.86;nan;98361.63;4863159;29;20139;-66
2023/10/02 06:09:12;;;;;;;25.70;10.65;;;;;;;35.12;nan;98370.03;4865313;29;20231;-66
2023/10/02 06:12:05;;;;;;;26.25;10.95;;;;;;;34.88;nan;98351.84;4865109;29;20149;-67
2023/10/02 06:14:38;;;;;;;24.50;9.65;;;;;;;34.85;nan;98354.53;4861937;29;20053;-66
2023/10/02 06:17:12;;;;;;;22.02;10.52;;;;;;;35.01;nan;98352.50;4868740;29;20052;-66
2023/10/02 06:19:43;;;;;;;28.35;10.10;;;;;;;34.82;nan;98347.78;4869112;29;20069;-66
2023/10/02 06:22:13;;;;;;;18.23;7.65;;;;;;;34.22;nan;98344.44;4867812;29;20052;-65
2023/10/02 06:24:43;;;;;;;19.23;7.35;;;;;;;34.59;nan;98344.09;4870929;29;20147;-65
2023/10/02 06:27:16;;;;;;;27.23;8.15;;;;;;;34.62;nan;98352.44;4868661;29;20059;-66
2023/10/02 06:29:47;;;;;;;18.38;6.80;;;;;;;34.55;nan;98338.53;4872763;29;20056;-65
2023/10/02 06:32:22;;;;;;;12.68;5.38;;;;;;;34.56;nan;98342.09;4876129;29;20146;-67
2023/10/02 06:34:56;;;;;;;25.95;5.82;;;;;;;34.38;nan;98341.69;4871539;29;20057;-65
2023/10/02 06:37:35;;;;;;;15.80;6.03;;;;;;;34.57;nan;98344.44;4870446;29;20109;-67
2023/10/02 06:40:14;;;;;;;15.77;5.38;;;;;;;34.45;nan;98336.31;4870393;29;20049;-67
2023/10/02 06:42:52;;;;;;;15.40;5.82;;;;;;;34.39;nan;98343.25;4869173;29;20067;-67
2023/10/02 06:45:21;;;;;;;14.60;5.47;;;;;;;34.57;nan;98336.19;4871208;29;20064;-65
2023/10/02 06:47:51;;;;;;;17.05;5.90;;;;;;;34.52;nan;98330.97;4866692;29;20517;-66
2023/10/02 06:50:34;;;;;;;15.93;5.40;;;;;;;34.58;nan;98334.25;4868614;29;20139;-65
2023/10/02 06:53:07;;;;;;;16.13;5.68;;;;;;;34.73;nan;98330.69;4869579;29;20078;-65
2023/10/02 06:55:37;;;;;;;20.75;6.75;;;;;;;34.51;nan;98323.91;4867406;29;20059;-64
2023/10/02 06:58:07;;;;;;;16.10;6.53;;;;;;;34.54;nan;98327.88;4864749;29;20049;-66
2023/10/02 07:00:54;;;;;;;10.13;6.05;;;;;;;34.60;nan;98327.25;4872075;29;20410;-65
2023/10/02 07:03:25;;;;;;;16.52;6.07;;;;;;;34.13;nan;98318.25;4873823;29;20478;-65
2023/10/02 07:05:58;;;;;;;14.43;5.93;;;;;;;34.03;nan;98321.56;4873078;29;20052;-65
2023/10/02 07:08:30;;;;;;;;;;;;;;;34.23;nan;98315.00;4870473;29;20080;-66
2023/10/02 07:11:01;;;;;;;11.27;4.30;;;;;;;34.23;nan;98312.25;4878158;29;20365;-65
2023/10/02 07:13:31;;;;;;;12.05;4.50;;;;;;;34.23;nan;98315.00;4878649;29;20068;-64
2023/10/02 07:16:05;;;;;;;18.75;4.38;;;;;;;34.25;nan;98309.94;4875914;29;20073;-65
2023/10/02 07:18:38;;;;;;;11.50;4.50;;;;;;;34.14;nan;98304.16;4874428;29;20053;-64
2023/10/02 07:21:08;;;;;;;14.65;4.75;;;;;;;34.18;nan;98305.06;4872494;29;20044;-64
2023/10/02 07:23:37;;;;;;;12.50;4.88;;;;;;;34.14;nan;98298.66;4875377;29;20053;-64
2023/10/02 07:26:19;;;;;;;19.35;5.30;;;;;;;34.04;nan;98299.19;4875323;29;20056;-64
2023/10/02 07:28:59;;;;;;;15.65;5.95;;;;;;;33.97;nan;98299.03;4875505;29;20151;-64
2023/10/02 07:31:30;;;;;;;12.35;5.60;;;;;;;33.97;nan;98300.97;4868957;29;20057;-65
2023/10/02 07:33:59;;;;;;;15.35;5.97;;;;;;;33.82;nan;98291.59;4868980;29;20156;-65
2023/10/02 07:36:32;;;;;;;12.23;6.05;;;;;;;33.59;nan;98288.63;4866289;29;20300;-65
2023/10/02 07:39:32;;;;;;;25.15;7.30;;;;;;;33.63;nan;98289.53;4863516;29;20052;-66
2023/10/02 07:42:00;;;;;;;17.98;6.05;;;;;;;33.69;nan;98281.84;4867554;29;20152;-65
2023/10/02 07:44:36;;;;;;;22.85;5.35;;;;;;;33.63;nan;98284.03;4878959;29;20067;-65
2023/10/02 07:47:16;;;;;;;14.55;6.10;;;;;;;33.59;nan;98277.63;4875443;29;20127;-65
2023/10/02 07:49:55;;;;;;;14.85;6.60;;;;;;;33.41;nan;98270.91;4868162;29;20049;-65
2023/10/02 07:52:35;;;;;;;13.40;5.75;;;;;;;33.55;nan;98273.22;4869688;29;20599;-65
2023/10/02 07:55:23;;;;;;;18.95;5.97;;;;;;;33.66;nan;98271.56;4871709;29;20037;-65
2023/10/02 07:57:58;;;;;;;17.35;5.05;;;;;;;33.59;nan;98265.88;4871291;29;20068;-65
2023/10/02 08:00:37;;;;;;;12.18;4.70;;;;;;;33.62;nan;98262.41;4870774;29;20044;-65
2023/10/02 08:06:52;;;;;;;15.48;5.47;;;;;;;33.36;nan;98252.75;4868870;29;20057;-65
2023/10/02 08:11:50;;;;;;;19.95;5.28;;;;;;;33.25;nan;98243.44;4874844;29;20882;-66
2023/10/02 08:14:42;;;;;;;17.60;6.00;;;;;;;33.21;nan;98245.28;4874719;29;20104;-63
2023/10/02 08:17:27;;;;;;;14.48;4.45;;;;;;;33.25;nan;98245.38;4867819;29;20053;-67
2023/10/02 08:19:59;;;;;;;13.30;4.28;;;;;;;33.10;nan;98232.41;4872316;29;20049;-65
2023/10/02 08:22:36;;;;;;;9.77;4.78;;;;;;;32.98;nan;98238.75;4871700;29;20064;-67
2023/10/02 08:25:13;;;;;;;16.90;5.72;;;;;;;33.17;nan;98238.09;4870890;29;20588;-65
2023/10/02 08:27:57;;;;;;;18.55;5.93;;;;;;;33.25;nan;98231.66;4873073;29;20049;-65
2023/10/02 08:33:06;;;;;;;15.18;5.25;;;;;;;33.17;nan;98222.44;4869940;29;20541;-63
2023/10/02 08:35:46;;;;;;;14.18;5.47;;;;;;;33.08;nan;98220.97;4872463;29;20107;-66
2023/10/02 08:38:25;;;;;;;12.88;5.50;;;;;;;33.14;nan;98216.81;4870928;29;20148;-66
2023/10/02 08:41:00;;;;;;;14.50;5.57;;;;;;;33.17;nan;98216.16;4871486;29;20715;-66
2023/10/02 08:43:43;;;;;;;10.75;5.13;;;;;;;33.01;nan;98213.34;4872947;29;20060;-65
2023/10/02 08:46:22;;;;;;;23.05;7.03;;;;;;;32.88;nan;98207.13;4870153;29;20076;-65
2023/10/02 08:48:55;;;;;;;16.42;6.32;;;;;;;33.02;nan;98203.19;4869653;29;20833;-65
2023/10/02 08:51:34;;;;;;;21.00;7.15;;;;;;;33.03;nan;98196.53;4868961;29;20426;-65
2023/10/02 08:54:06;;;;;;;17.88;6.15;;;;;;;32.99;nan;98193.69;4869360;29;20801;-65
2023/10/02 08:56:48;;;;;;;13.23;6.15;;;;;;;33.04;nan;98189.88;4868844;29;20061;-65
2023/10/02 08:59:35;;;;;;;12.02;5.38;;;;;;;33.04;nan;98193.44;4871127;29;20061;-65
2023/10/02 09:02:14;;;;;;;15.20;5.70;;;;;;;33.01;nan;98185.13;4878291;29;20053;-65
2023/10/02 09:04:57;;;;;;;15.23;6.07;;;;;;;32.89;nan;98188.72;4870698;29;20072;-65
2023/10/02 09:10:58;;;;;;;19.30;6.50;;;;;;;32.83;nan;98190.13;4831830;29;20054;-65
2023/10/02 09:13:31;;;;;;;14.35;5.93;;;;;;;32.82;nan;98181.09;4832132;29;20134;-64
2023/10/02 09:16:14;;;;;;;18.95;6.43;;;;;;;32.86;nan;98183.94;4861192;29;20052;-65
2023/10/02 09:21:48;;;;;;;20.77;5.95;;;;;;;32.75;nan;98171.88;4823712;29;20046;-67
2023/10/02 09:24:23;;;;;;;15.32;6.43;;;;;;;32.71;nan;98174.50;4867268;29;20067;-64
2023/10/02 09:26:57;;;;;;;11.60;5.10;;;;;;;32.71;nan;98170.97;4879334;29;20752;-65
2023/10/02 09:29:33;;;;;;;14.85;5.95;;;;;;;32.58;nan;98164.72;4879331;29;20134;-65
2023/10/02 09:32:05;;;;;;;10.25;6.15;;;;;;;32.57;nan;98160.41;4881373;29;20044;-65
2023/10/02 09:34:35;;;;;;;19.50;6.90;;;;;;;32.51;nan;98167.28;4882739;29;20056;-66
2023/10/02 09:37:26;;;;;;;9.25;5.53;;;;;;;32.44;nan;98167.84;4877008;29;20044;-65
2023/10/02 09:40:15;;;;;;;16.20;6.13;;;;;;;32.41;nan;98165.81;4876639;29;20530;-66
2023/10/02 09:42:56;;;;;;;18.77;6.47;;;;;;;32.45;nan;98165.91;4878673;29;20080;-66
2023/10/02 09:45:37;;;;;;;19.73;7.18;;;;;;;32.43;nan;98165.47;4879413;29;20055;-64
2023/10/02 09:48:46;;;;;;;20.98;6.70;;;;;;;32.40;nan;98160.69;4857127;29;20045;-67
2023/10/02 09:51:06;;;;;;;19.17;7.15;;;;;;;32.32;nan;98165.16;4873417;29;20120;-66
2023/10/02 09:54:02;;;;;;;20.55;6.97;;;;;;;32.28;nan;98163.47;4881394;29;20051;-66
2023/10/02 09:57:14;;;;;;;18.17;6.57;;;;;;;32.21;nan;98155.06;4864424;29;20057;-64
2023/10/02 10:00:34;;;;;;;17.50;6.40;;;;;;;32.25;nan;98155.94;4867642;29;20426;-66
2023/10/02 10:03:24;;;;;;;22.35;7.28;;;;;;;32.15;nan;98151.75;4868856;29;20494;-65
2023/10/02 10:06:17;;;;;;;24.95;7.47;;;;;;;32.07;nan;98141.69;4870752;29;20057;-66
2023/10/02 10:11:45;;;;;;;20.30;7.00;;;;;;;32.02;nan;98142.75;4866213;29;20059;-65
2023/10/02 10:14:36;;;;;;;24.40;6.82;;;;;;;32.01;nan;98138.41;4866540;29;20560;-65
2023/10/02 10:17:16;;;;;;;19.40;6.45;;;;;;;31.90;nan;98134.56;4876194;29;20052;-64
2023/10/02 10:20:18;;;;;;;9.85;5.90;;;;;;;31.97;nan;98140.25;4874283;29;20057;-66
2023/10/02 10:22:50;;;;;;;24.70;7.13;;;;;;;31.87;nan;98132.50;4880671;29;20052;-65
2023/10/02 10:25:22;;;;;;;18.33;6.65;;;;;;;31.87;nan;98128.94;4875765;29;20061;-66
2023/10/02 10:28:26;;;;;;;19.23;6.72;;;;;;;31.79;nan;98125.22;4879029;29;20060;-65
2023/10/02 10:30:50;;;;;;;24.33;7.05;;;;;;;31.73;nan;98121.13;4876733;29;20067;-65
2023/10/02 10:33:26;;;;;;;14.57;7.05;;;;;;;31.73;nan;98114.84;4881299;29;20115;-66
2023/10/02 10:35:56;;;;;;;13.88;6.82;;;;;;;31.65;nan;98108.34;4871198;29;20052;-67
2023/10/02 10:38:26;;;;;;;19.60;7.25;;;;;;;31.65;nan;98114.63;4873676;29;20049;-66
2023/10/02 10:41:05;;;;;;;16.02;6.75;;;;;;;31.63;nan;98114.19;4871653;29;20103;-66
2023/10/02 10:46:29;;;;;;;22.98;7.68;;;;;;;31.40;nan;98113.03;4869712;29;20048;-65
2023/10/02 10:49:26;;;;;;;20.25;7.50;;;;;;;31.40;nan;98113.03;4881653;29;20049;-70
2023/10/02 10:52:00;;;;;;;18.80;7.75;;;;;;;31.40;nan;98112.22;4878097;29;20059;-70
2023/10/02 10:54:39;;;;;;;27.05;8.93;;;;;;;31.33;nan;98110.06;4869289;29;20592;-71
2023/10/02 10:57:22;;;;;;;28.08;10.93;;;;;;;31.35;nan;98107.78;4881161;29;20052;-70
2023/10/02 11:00:25;;;;;;;22.73;9.80;;;;;;;31.34;nan;98105.38;4873421;29;20513;-67
2023/10/02 11:03:11;;;;;;;27.17;11.18;;;;;;;31.35;nan;98112.44;4867968;29;20049;-69
2023/10/02 11:05:41;;;;;;;28.45;11.93;;;;;;;31.35;nan;98109.72;4872689;29;20057;-70
2023/10/02 11:08:24;;;;;;;24.73;10.50;;;;;;;31.34;nan;98099.91;4870590;29;20076;-71
2023/10/02 11:11:09;;;;;;;27.33;11.80;;;;;;;31.37;nan;98115.66;4871280;29;20049;-68
2023/10/02 11:13:53;;;;;;;33.05;11.20;;;;;;;31.31;nan;98112.34;4868116;29;20048;-68
2023/10/02 11:16:37;;;;;;;16.50;9.90;;;;;;;31.29;nan;98114.59;4872430;29;20048;-68
2023/10/02 11:22:18;;;;;;;32.40;12.32;;;;;;;31.16;nan;98110.28;4883804;29;20048;-69
2023/10/02 11:25:27;;;;;;;18.50;9.77;;;;;;;31.16;nan;98113.81;4886641;29;20052;-69
2023/10/02 11:27:58;;;;;;;20.15;9.10;;;;;;;30.98;nan;98117.88;4879957;29;20040;-69
2023/10/02 11:30:36;;;;;;;26.33;9.63;;;;;;;30.90;nan;98109.75;4884718;29;20139;-69
2023/10/02 11:33:07;;;;;;;20.92;8.00;;;;;;;30.89;nan;98113.66;4883540;29;20056;-69
2023/10/02 11:35:41;;;;;;;19.38;8.75;;;;;;;30.89;nan;98106.22;4880799;29;20057;-68
2023/10/02 11:38:10;;;;;;;28.30;8.35;;;;;;;30.82;nan;98114.19;4876487;29;20057;-69
2023/10/02 11:40:43;;;;;;;16.73;7.88;;;;;;;30.83;nan;98112.28;4887125;29;20045;-69
2023/10/02 11:43:15;;;;;;;20.65;8.20;;;;;;;30.74;nan;98115.91;4879957;29;20545;-68
2023/10/02 11:45:47;;;;;;;32.40;9.07;;;;;;;30.68;nan;98110.97;4873677;29;20304;-69
2023/10/02 11:48:17;;;;;;;15.73;8.33;;;;;;;30.62;nan;98104.16;4875918;29;20057;-69
2023/10/02 11:50:47;;;;;;;19.33;7.85;;;;;;;30.57;nan;98107.09;4877606;29;20056;-69
2023/10/02 11:53:21;;;;;;;20.50;8.13;;;;;;;30.51;nan;98105.69;4881415;29;20472;-69
2023/10/02 11:55:51;;;;;;;21.20;8.23;;;;;;;30.40;nan;98108.03;4887753;29;20048;-69
2023/10/02 11:58:20;;;;;;;20.38;7.97;;;;;;;30.39;nan;98117.38;4879953;29;20063;-68
2023/10/02 12:01:12;;;;;;;18.55;7.45;;;;;;;30.38;nan;98110.28;4876265;29;20041;-68
2023/10/02 12:04:00;;;;;;;26.63;8.88;;;;;;;30.38;nan;98112.22;4866111;29;20049;-69
2023/10/02 12:06:29;;;;;;;17.35;7.72;;;;;;;30.26;nan;98111.06;4873391;29;20140;-68
2023/10/02 12:09:00;;;;;;;20.08;6.93;;;;;;;30.17;nan;98112.25;4880779;29;20044;-67
2023/10/02 12:11:34;;;;;;;21.95;6.90;;;;;;;30.10;nan;98110.06;4877938;29;20465;-67
2023/10/02 12:14:03;;;;;;;16.55;7.25;;;;;;;30.06;nan;98103.66;4875501;29;20097;-67
2023/10/02 12:16:33;;;;;;;18.98;6.88;;;;;;;30.01;nan;98106.59;4877330;29;20144;-69
2023/10/02 12:19:02;;;;;;;14.35;6.18;;;;;;;29.98;nan;98112.72;4849343;29;20571;-68
2023/10/02 12:21:33;;;;;;;17.83;6.03;;;;;;;29.97;nan;98100.19;4874942;29;20053;-68
2023/10/02 12:24:05;;;;;;;26.63;6.70;;;;;;;29.85;nan;98106.38;4873511;29;20140;-67
2023/10/02 12:26:34;;;;;;;18.00;5.50;;;;;;;29.70;nan;98111.63;4870994;29;20049;-70
2023/10/02 12:29:04;;;;;;;21.17;5.78;;;;;;;29.65;nan;98109.88;4875162;29;20553;-69
2023/10/02 12:31:36;;;;;;;14.52;6.10;;;;;;;29.53;nan;98107.06;4872345;29;20052;-67
2023/10/02 12:34:06;;;;;;;19.73;6.23;;;;;;;29.45;nan;98103.28;4875137;29;20766;-68
2023/10/02 12:36:35;;;;;;;18.15;6.32;;;;;;;29.48;nan;98106.47;4877406;29;20481;-67
2023/10/02 12:39:09;;;;;;;16.52;6.47;;;;;;;29.38;nan;98113.94;4872294;29;20063;-68
2023/10/02 12:41:44;;;;;;;14.35;6.60;;;;;;;29.24;nan;98112.50;4874638;29;20166;-68
2023/10/02 12:44:14;;;;;;;28.23;6.72;;;;;;;29.01;nan;98106.50;4879705;29;20056;-67
2023/10/02 12:46:46;;;;;;;19.80;7.40;;;;;;;28.94;nan;98108.97;4878583;29;20145;-67
2023/10/02 12:49:31;;;;;;;20.55;7.40;;;;;;;28.86;nan;98107.03;4882767;29;20143;-67
2023/10/02 12:52:01;;;;;;;18.38;7.38;;;;;;;28.78;nan;98116.06;4860950;29;20063;-67
2023/10/02 12:54:31;;;;;;;24.77;9.55;;;;;;;28.73;nan;98110.78;4871028;29;20049;-68
2023/10/02 12:57:00;;;;;;;22.63;7.13;;;;;;;28.68;nan;98113.66;4871493;29;20139;-67
2023/10/02 12:59:29;;;;;;;13.57;6.60;;;;;;;28.59;nan;98110.94;4869649;29;20108;-68
2023/10/02 13:01:59;;;;;;;29.90;7.30;;;;;;;28.63;nan;98111.91;4880632;29;21534;-67
2023/10/02 13:04:30;;;;;;;21.08;7.68;;;;;;;28.71;nan;98108.41;4877881;29;20132;-67
2023/10/02 13:07:01;;;;;;;21.55;7.50;;;;;;;28.66;nan;98115.91;4875561;29;20057;-67